<?xml version='1.0' encoding='UTF-8'?>
<gpx version="1.1" creator="https://www.komoot.de" xmlns="http://www.topografix.com/GPX/1/1" xmlns:xsi="http://www.w3.org/2001/XMLSchema-instance" xsi:schemaLocation="http://www.topografix.com/GPX/1/1 http://www.topografix.com/GPX/1/1/gpx.xsd">
  <metadata>
    <name>2km_version_10_08_2026</name>
    <author>
      <link href="https://www.komoot.de">
        <text>komoot</text>
        <type>text/html</type>
      </link>
    </author>
  </metadata>
  <trk>
    <name>2km_version_10_08_2026</name>
    <type>jogging</type>
    <trkseg>
      <trkpt lat="50.657746" lon="5.569129">
        <ele>180.257871</ele>
        <time>2026-06-24T13:35:59.776Z</time>
      </trkpt>
      <trkpt lat="50.657849" lon="5.568983">
        <ele>180.257871</ele>
        <time>2026-06-24T13:36:05.773Z</time>
      </trkpt>
      <trkpt lat="50.659060" lon="5.567285">
        <ele>181.023079</ele>
        <time>2026-06-24T13:37:17.321Z</time>
      </trkpt>
      <trkpt lat="50.659181" lon="5.567084">
        <ele>181.179536</ele>
        <time>2026-06-24T13:37:24.832Z</time>
      </trkpt>
      <trkpt lat="50.659351" lon="5.566851">
        <ele>181.380055</ele>
        <time>2026-06-24T13:37:34.362Z</time>
      </trkpt>
      <trkpt lat="50.659371" lon="5.566682">
        <ele>181.477094</ele>
        <time>2026-06-24T13:37:38.888Z</time>
      </trkpt>
      <trkpt lat="50.658901" lon="5.566131">
        <ele>181.579770</ele>
        <time>2026-06-24T13:38:02.624Z</time>
      </trkpt>
      <trkpt lat="50.658901" lon="5.565990">
        <ele>181.419837</ele>
        <time>2026-06-24T13:38:06.196Z</time>
      </trkpt>
      <trkpt lat="50.658836" lon="5.565903">
        <ele>181.267310</ele>
        <time>2026-06-24T13:38:09.592Z</time>
      </trkpt>
      <trkpt lat="50.658782" lon="5.565635">
        <ele>180.948337</ele>
        <time>2026-06-24T13:38:16.651Z</time>
      </trkpt>
      <trkpt lat="50.658752" lon="5.565601">
        <ele>180.882242</ele>
        <time>2026-06-24T13:38:18.104Z</time>
      </trkpt>
      <trkpt lat="50.658627" lon="5.565332">
        <ele>180.503927</ele>
        <time>2026-06-24T13:38:26.358Z</time>
      </trkpt>
      <trkpt lat="50.658398" lon="5.564920">
        <ele>179.882411</ele>
        <time>2026-06-24T13:38:39.830Z</time>
      </trkpt>
      <trkpt lat="50.658276" lon="5.564764">
        <ele>179.601410</ele>
        <time>2026-06-24T13:38:45.959Z</time>
      </trkpt>
      <trkpt lat="50.658092" lon="5.564597">
        <ele>179.221579</ele>
        <time>2026-06-24T13:38:54.192Z</time>
      </trkpt>
      <trkpt lat="50.657760" lon="5.564303">
        <ele>178.530688</ele>
        <time>2026-06-24T13:39:08.933Z</time>
      </trkpt>
      <trkpt lat="50.657373" lon="5.563966">
        <ele>177.663997</ele>
        <time>2026-06-24T13:39:26.210Z</time>
      </trkpt>
      <trkpt lat="50.656871" lon="5.563528">
        <ele>176.539244</ele>
        <time>2026-06-24T13:39:48.751Z</time>
      </trkpt>
      <trkpt lat="50.656097" lon="5.562846">
        <ele>174.841533</ele>
        <time>2026-06-24T13:40:23.630Z</time>
      </trkpt>
      <trkpt lat="50.655926" lon="5.562772">
        <ele>174.538778</ele>
        <time>2026-06-24T13:40:30.567Z</time>
      </trkpt>
      <trkpt lat="50.655676" lon="5.562719">
        <ele>174.108088</ele>
        <time>2026-06-24T13:40:40.285Z</time>
      </trkpt>
      <trkpt lat="50.655625" lon="5.562711">
        <ele>174.020581</ele>
        <time>2026-06-24T13:40:42.243Z</time>
      </trkpt>
      <trkpt lat="50.655619" lon="5.562987">
        <ele>173.721646</ele>
        <time>2026-06-24T13:40:50.153Z</time>
      </trkpt>
      <trkpt lat="50.655634" lon="5.563018">
        <ele>173.679433</ele>
        <time>2026-06-24T13:40:51.238Z</time>
      </trkpt>
      <trkpt lat="50.655659" lon="5.563072">
        <ele>173.607054</ele>
        <time>2026-06-24T13:40:53.147Z</time>
      </trkpt>
      <trkpt lat="50.655750" lon="5.563136">
        <ele>173.436935</ele>
        <time>2026-06-24T13:40:57.678Z</time>
      </trkpt>
      <trkpt lat="50.656150" lon="5.563347">
        <ele>172.716794</ele>
        <time>2026-06-24T13:41:16.993Z</time>
      </trkpt>
      <trkpt lat="50.656220" lon="5.563450">
        <ele>172.553346</ele>
        <time>2026-06-24T13:41:21.363Z</time>
      </trkpt>
      <trkpt lat="50.656231" lon="5.563488">
        <ele>172.508128</ele>
        <time>2026-06-24T13:41:22.598Z</time>
      </trkpt>
      <trkpt lat="50.656249" lon="5.563555">
        <ele>172.429361</ele>
        <time>2026-06-24T13:41:24.762Z</time>
      </trkpt>
      <trkpt lat="50.656244" lon="5.563666">
        <ele>172.308907</ele>
        <time>2026-06-24T13:41:27.984Z</time>
      </trkpt>
      <trkpt lat="50.657749" lon="5.564992">
        <ele>173.650103</ele>
        <time>2026-06-24T13:42:41.553Z</time>
      </trkpt>
      <trkpt lat="50.657855" lon="5.565026">
        <ele>173.760886</ele>
        <time>2026-06-24T13:42:46.690Z</time>
      </trkpt>
      <trkpt lat="50.657865" lon="5.565219">
        <ele>173.885257</ele>
        <time>2026-06-24T13:42:52.342Z</time>
      </trkpt>
      <trkpt lat="50.657808" lon="5.565382">
        <ele>173.808195</ele>
        <time>2026-06-24T13:42:57.620Z</time>
      </trkpt>
      <trkpt lat="50.658039" lon="5.565785">
        <ele>173.583284</ele>
        <time>2026-06-24T13:43:15.647Z</time>
      </trkpt>
      <trkpt lat="50.658206" lon="5.566323">
        <ele>173.335306</ele>
        <time>2026-06-24T13:43:34.565Z</time>
      </trkpt>
      <trkpt lat="50.657562" lon="5.566908">
        <ele>172.850030</ele>
        <time>2026-06-24T13:44:03.946Z</time>
      </trkpt>
      <trkpt lat="50.657178" lon="5.567257">
        <ele>171.871841</ele>
        <time>2026-06-24T13:44:20.356Z</time>
      </trkpt>
      <trkpt lat="50.657159" lon="5.567275">
        <ele>171.791193</ele>
        <time>2026-06-24T13:44:21.164Z</time>
      </trkpt>
      <trkpt lat="50.656814" lon="5.567617">
        <ele>170.308489</ele>
        <time>2026-06-24T13:44:36.130Z</time>
      </trkpt>
      <trkpt lat="50.656535" lon="5.568004">
        <ele>168.956568</ele>
        <time>2026-06-24T13:44:49.966Z</time>
      </trkpt>
      <trkpt lat="50.655684" lon="5.569535">
        <ele>166.165063</ele>
        <time>2026-06-24T13:45:39.104Z</time>
      </trkpt>
      <trkpt lat="50.655502" lon="5.569851">
        <ele>166.164372</ele>
        <time>2026-06-24T13:45:50.025Z</time>
      </trkpt>
      <trkpt lat="50.655397" lon="5.570051">
        <ele>166.163952</ele>
        <time>2026-06-24T13:45:56.846Z</time>
      </trkpt>
      <trkpt lat="50.655343" lon="5.570130">
        <ele>166.163764</ele>
        <time>2026-06-24T13:45:59.898Z</time>
      </trkpt>
      <trkpt lat="50.655319" lon="5.570215">
        <ele>166.163614</ele>
        <time>2026-06-24T13:46:02.511Z</time>
      </trkpt>
      <trkpt lat="50.655236" lon="5.570264">
        <ele>166.163388</ele>
        <time>2026-06-24T13:46:06.271Z</time>
      </trkpt>
      <trkpt lat="50.655225" lon="5.570481">
        <ele>166.163035</ele>
        <time>2026-06-24T13:46:12.386Z</time>
      </trkpt>
      <trkpt lat="50.655249" lon="5.570778">
        <ele>166.162551</ele>
        <time>2026-06-24T13:46:20.799Z</time>
      </trkpt>
      <trkpt lat="50.655392" lon="5.571903">
        <ele>167.612507</ele>
        <time>2026-06-24T13:46:54.304Z</time>
      </trkpt>
      <trkpt lat="50.655505" lon="5.572093">
        <ele>168.160499</ele>
        <time>2026-06-24T13:47:02.534Z</time>
      </trkpt>
      <trkpt lat="50.655750" lon="5.571733">
        <ele>169.271447</ele>
        <time>2026-06-24T13:47:19.090Z</time>
      </trkpt>
      <trkpt lat="50.656072" lon="5.571378">
        <ele>170.574902</ele>
        <time>2026-06-24T13:47:37.735Z</time>
      </trkpt>
      <trkpt lat="50.656726" lon="5.570531">
        <ele>172.129503</ele>
        <time>2026-06-24T13:48:16.096Z</time>
      </trkpt>
      <trkpt lat="50.656801" lon="5.570433">
        <ele>172.129503</ele>
        <time>2026-06-24T13:48:20.577Z</time>
      </trkpt>
      <trkpt lat="50.657349" lon="5.569682">
        <ele>172.129503</ele>
        <time>2026-06-24T13:48:53.906Z</time>
      </trkpt>
      <trkpt lat="50.657607" lon="5.569316">
        <ele>172.129503</ele>
        <time>2026-06-24T13:49:09.644Z</time>
      </trkpt>
      <trkpt lat="50.657719" lon="5.569167">
        <ele>172.129503</ele>
        <time>2026-06-24T13:49:16.158Z</time>
      </trkpt>
      <trkpt lat="50.657746" lon="5.569129">
        <ele>172.129503</ele>
        <time>2026-06-24T13:49:17.756Z</time>
      </trkpt>
    </trkseg>
  </trk>
</gpx>